sensor_id;sensor_type;location;lat;lon;timestamp;temperature;humidity
25550;DHT22;13444;50.562;7.262;2023-03-29T00:00:21;6.40;99.90
25550;DHT22;13444;50.562;7.262;2023-03-29T00:02:47;6.40;99.90
25550;DHT22;13444;50.562;7.262;2023-03-29T00:05:14;6.40;99.90
25550;DHT22;13444;50.562;7.262;2023-03-29T00:07:41;6.40;99.90
25550;DHT22;13444;50.562;7.262;2023-03-29T00:10:08;6.40;99.90
25550;DHT22;13444;50.562;7.262;2023-03-29T00:12:35;6.40;99.90
25550;DHT22;13444;50.562;7.262;2023-03-29T00:15:02;6.30;99.90
25550;DHT22;13444;50.562;7.262;2023-03-29T00:17:28;6.40;99.90
25550;DHT22;13444;50.562;7.262;2023-03-29T00:19:54;6.40;99.90
25550;DHT22;13444;50.562;7.262;2023-03-29T00:22:20;6.40;99.90
25550;DHT22;13444;50.562;7.262;2023-03-29T00:24:46;6.40;99.90
25550;DHT22;13444;50.562;7.262;2023-03-29T00:27:14;6.40;99.90
25550;DHT22;13444;50.562;7.262;2023-03-29T00:29:39;6.40;99.90
25550;DHT22;13444;50.562;7.262;2023-03-29T00:32:05;6.40;99.90
25550;DHT22;13444;50.562;7.262;2023-03-29T00:34:31;6.40;99.90
25550;DHT22;13444;50.562;7.262;2023-03-29T00:36:57;6.40;99.90
25550;DHT22;13444;50.562;7.262;2023-03-29T00:39:24;6.40;99.90
25550;DHT22;13444;50.562;7.262;2023-03-29T00:41:51;6.40;99.90
25550;DHT22;13444;50.562;7.262;2023-03-29T00:47:20;6.40;99.90
25550;DHT22;13444;50.562;7.262;2023-03-29T00:49:49;6.40;99.90
25550;DHT22;13444;50.562;7.262;2023-03-29T00:52:18;6.40;99.90
25550;DHT22;13444;50.562;7.262;2023-03-29T00:54:50;6.30;99.90
25550;DHT22;13444;50.562;7.262;2023-03-29T00:57:17;6.30;99.90
25550;DHT22;13444;50.562;7.262;2023-03-29T00:59:45;6.30;99.90
25550;DHT22;13444;50.562;7.262;2023-03-29T01:02:13;6.30;99.90
25550;DHT22;13444;50.562;7.262;2023-03-29T01:04:58;6.30;99.90
25550;DHT22;13444;50.562;7.262;2023-03-29T01:07:42;6.20;99.90
25550;DHT22;13444;50.562;7.262;2023-03-29T01:10:22;6.20;99.90
25550;DHT22;13444;50.562;7.262;2023-03-29T01:12:53;6.20;99.90
25550;DHT22;13444;50.562;7.262;2023-03-29T01:15:23;6.20;99.90
25550;DHT22;13444;50.562;7.262;2023-03-29T01:17:51;6.20;99.90
25550;DHT22;13444;50.562;7.262;2023-03-29T01:26:00;6.10;99.90
25550;DHT22;13444;50.562;7.262;2023-03-29T01:28:34;6.10;99.90
25550;DHT22;13444;50.562;7.262;2023-03-29T01:31:10;6.20;99.90
25550;DHT22;13444;50.562;7.262;2023-03-29T01:33:41;6.20;99.90
25550;DHT22;13444;50.562;7.262;2023-03-29T01:36:38;6.20;99.90
25550;DHT22;13444;50.562;7.262;2023-03-29T01:39:06;6.10;99.90
25550;DHT22;13444;50.562;7.262;2023-03-29T01:41:54;6.20;99.90
25550;DHT22;13444;50.562;7.262;2023-03-29T01:44:37;6.20;99.90
25550;DHT22;13444;50.562;7.262;2023-03-29T01:47:28;6.20;99.90
25550;DHT22;13444;50.562;7.262;2023-03-29T01:52:37;6.20;99.90
25550;DHT22;13444;50.562;7.262;2023-03-29T01:55:12;6.20;99.90
25550;DHT22;13444;50.562;7.262;2023-03-29T01:57:41;6.20;99.90
25550;DHT22;13444;50.562;7.262;2023-03-29T02:00:14;6.20;99.90
25550;DHT22;13444;50.562;7.262;2023-03-29T02:02:41;6.20;99.90
25550;DHT22;13444;50.562;7.262;2023-03-29T02:05:11;6.30;99.90
25550;DHT22;13444;50.562;7.262;2023-03-29T02:07:38;6.30;99.90
25550;DHT22;13444;50.562;7.262;2023-03-29T02:10:07;6.30;99.90
25550;DHT22;13444;50.562;7.262;2023-03-29T02:12:33;6.30;99.90
25550;DHT22;13444;50.562;7.262;2023-03-29T02:14:59;6.30;99.90
25550;DHT22;13444;50.562;7.262;2023-03-29T02:17:27;6.30;99.90
25550;DHT22;13444;50.562;7.262;2023-03-29T02:22:32;6.30;99.90
25550;DHT22;13444;50.562;7.262;2023-03-29T02:25:03;6.40;99.90
25550;DHT22;13444;50.562;7.262;2023-03-29T02:27:32;6.40;99.90
25550;DHT22;13444;50.562;7.262;2023-03-29T02:29:58;6.40;99.90
25550;DHT22;13444;50.562;7.262;2023-03-29T02:32:33;6.40;99.90
25550;DHT22;13444;50.562;7.262;2023-03-29T02:35:05;6.40;99.90
25550;DHT22;13444;50.562;7.262;2023-03-29T02:37:33;6.40;99.90
25550;DHT22;13444;50.562;7.262;2023-03-29T02:40:01;6.40;99.90
25550;DHT22;13444;50.562;7.262;2023-03-29T02:42:38;6.40;99.90
25550;DHT22;13444;50.562;7.262;2023-03-29T02:45:04;6.50;99.90
25550;DHT22;13444;50.562;7.262;2023-03-29T02:47:37;6.40;99.90
25550;DHT22;13444;50.562;7.262;2023-03-29T02:50:06;6.40;99.90
25550;DHT22;13444;50.562;7.262;2023-03-29T02:52:38;6.50;99.90
25550;DHT22;13444;50.562;7.262;2023-03-29T02:55:07;6.50;99.90
25550;DHT22;13444;50.562;7.262;2023-03-29T02:57:35;6.50;99.90
25550;DHT22;13444;50.562;7.262;2023-03-29T03:00:04;6.50;99.90
25550;DHT22;13444;50.562;7.262;2023-03-29T03:02:33;6.50;99.90
25550;DHT22;13444;50.562;7.262;2023-03-29T03:04:59;6.50;99.90
25550;DHT22;13444;50.562;7.262;2023-03-29T03:07:25;6.50;99.90
25550;DHT22;13444;50.562;7.262;2023-03-29T03:09:50;6.50;99.90
25550;DHT22;13444;50.562;7.262;2023-03-29T03:12:16;6.50;99.90
25550;DHT22;13444;50.562;7.262;2023-03-29T03:14:42;6.50;99.90
25550;DHT22;13444;50.562;7.262;2023-03-29T03:17:08;6.50;99.90
25550;DHT22;13444;50.562;7.262;2023-03-29T03:19:34;6.50;99.90
25550;DHT22;13444;50.562;7.262;2023-03-29T03:22:00;6.60;99.90
25550;DHT22;13444;50.562;7.262;2023-03-29T03:24:26;6.60;99.90
25550;DHT22;13444;50.562;7.262;2023-03-29T03:26:52;6.60;99.90
25550;DHT22;13444;50.562;7.262;2023-03-29T03:29:18;6.60;99.90
25550;DHT22;13444;50.562;7.262;2023-03-29T03:31:43;6.60;99.90
25550;DHT22;13444;50.562;7.262;2023-03-29T03:34:09;6.60;99.90
25550;DHT22;13444;50.562;7.262;2023-03-29T03:36:35;6.60;99.90
25550;DHT22;13444;50.562;7.262;2023-03-29T03:39:02;6.60;99.90
25550;DHT22;13444;50.562;7.262;2023-03-29T03:41:30;6.60;99.90
25550;DHT22;13444;50.562;7.262;2023-03-29T03:43:57;6.60;99.90
25550;DHT22;13444;50.562;7.262;2023-03-29T03:46:22;6.60;99.90
25550;DHT22;13444;50.562;7.262;2023-03-29T03:48:48;6.60;99.90
25550;DHT22;13444;50.562;7.262;2023-03-29T03:51:13;6.60;99.90
25550;DHT22;13444;50.562;7.262;2023-03-29T03:53:39;6.60;99.90
25550;DHT22;13444;50.562;7.262;2023-03-29T03:56:05;6.60;99.90
25550;DHT22;13444;50.562;7.262;2023-03-29T03:58:35;6.60;99.90
25550;DHT22;13444;50.562;7.262;2023-03-29T04:01:01;6.60;99.90
25550;DHT22;13444;50.562;7.262;2023-03-29T04:03:26;6.60;99.90
25550;DHT22;13444;50.562;7.262;2023-03-29T04:05:52;6.60;99.90
25550;DHT22;13444;50.562;7.262;2023-03-29T04:08:18;6.70;99.90
25550;DHT22;13444;50.562;7.262;2023-03-29T04:10:51;6.70;99.90
25550;DHT22;13444;50.562;7.262;2023-03-29T04:13:17;6.70;99.90
25550;DHT22;13444;50.562;7.262;2023-03-29T04:15:43;6.70;99.90
25550;DHT22;13444;50.562;7.262;2023-03-29T04:18:10;6.70;99.90
25550;DHT22;13444;50.562;7.262;2023-03-29T04:20:37;6.70;99.90
25550;DHT22;13444;50.562;7.262;2023-03-29T04:23:03;6.70;99.90
25550;DHT22;13444;50.562;7.262;2023-03-29T04:25:28;6.70;99.90
25550;DHT22;13444;50.562;7.262;2023-03-29T04:27:54;6.70;99.90
25550;DHT22;13444;50.562;7.262;2023-03-29T04:30:20;6.70;99.90
25550;DHT22;13444;50.562;7.262;2023-03-29T04:32:46;6.70;99.90
25550;DHT22;13444;50.562;7.262;2023-03-29T04:35:12;6.70;99.90
25550;DHT22;13444;50.562;7.262;2023-03-29T04:37:37;6.70;99.90
25550;DHT22;13444;50.562;7.262;2023-03-29T04:40:06;6.70;99.90
25550;DHT22;13444;50.562;7.262;2023-03-29T04:42:33;6.70;99.90
25550;DHT22;13444;50.562;7.262;2023-03-29T04:44:59;6.70;99.90
25550;DHT22;13444;50.562;7.262;2023-03-29T04:47:25;6.70;99.90
25550;DHT22;13444;50.562;7.262;2023-03-29T04:49:54;6.80;99.90
25550;DHT22;13444;50.562;7.262;2023-03-29T04:52:19;6.80;99.90
25550;DHT22;13444;50.562;7.262;2023-03-29T04:54:45;6.70;99.90
25550;DHT22;13444;50.562;7.262;2023-03-29T04:57:11;6.80;99.90
25550;DHT22;13444;50.562;7.262;2023-03-29T04:59:36;6.80;99.90
25550;DHT22;13444;50.562;7.262;2023-03-29T05:02:02;6.70;99.90
25550;DHT22;13444;50.562;7.262;2023-03-29T05:04:29;6.70;99.90
25550;DHT22;13444;50.562;7.262;2023-03-29T05:06:55;6.70;99.90
25550;DHT22;13444;50.562;7.262;2023-03-29T05:09:22;6.70;99.90
25550;DHT22;13444;50.562;7.262;2023-03-29T05:11:48;6.70;99.90
25550;DHT22;13444;50.562;7.262;2023-03-29T05:14:14;6.80;99.90
25550;DHT22;13444;50.562;7.262;2023-03-29T05:16:40;6.80;99.90
25550;DHT22;13444;50.562;7.262;2023-03-29T05:19:07;6.70;99.90
25550;DHT22;13444;50.562;7.262;2023-03-29T05:21:33;6.70;99.90
25550;DHT22;13444;50.562;7.262;2023-03-29T05:24:00;6.80;99.90
25550;DHT22;13444;50.562;7.262;2023-03-29T05:26:26;6.80;99.90
25550;DHT22;13444;50.562;7.262;2023-03-29T05:28:52;6.80;99.90
25550;DHT22;13444;50.562;7.262;2023-03-29T05:31:17;6.80;99.90
25550;DHT22;13444;50.562;7.262;2023-03-29T05:33:45;6.80;99.90
25550;DHT22;13444;50.562;7.262;2023-03-29T05:36:13;6.80;99.90
25550;DHT22;13444;50.562;7.262;2023-03-29T05:38:40;6.80;99.90
25550;DHT22;13444;50.562;7.262;2023-03-29T05:41:09;6.80;99.90
25550;DHT22;13444;50.562;7.262;2023-03-29T05:43:35;6.80;99.90
25550;DHT22;13444;50.562;7.262;2023-03-29T05:46:00;6.80;99.90
25550;DHT22;13444;50.562;7.262;2023-03-29T05:48:26;6.80;99.90
25550;DHT22;13444;50.562;7.262;2023-03-29T05:50:53;6.90;99.90
25550;DHT22;13444;50.562;7.262;2023-03-29T05:53:21;6.90;99.90
25550;DHT22;13444;50.562;7.262;2023-03-29T05:55:47;6.90;99.90
25550;DHT22;13444;50.562;7.262;2023-03-29T05:58:13;6.90;99.90
25550;DHT22;13444;50.562;7.262;2023-03-29T06:00:39;6.90;99.90
25550;DHT22;13444;50.562;7.262;2023-03-29T06:03:06;7.00;99.90
25550;DHT22;13444;50.562;7.262;2023-03-29T06:05:34;7.00;99.90
25550;DHT22;13444;50.562;7.262;2023-03-29T06:08:01;7.00;99.90
25550;DHT22;13444;50.562;7.262;2023-03-29T06:10:26;7.10;99.90
25550;DHT22;13444;50.562;7.262;2023-03-29T06:12:53;7.10;99.90
25550;DHT22;13444;50.562;7.262;2023-03-29T06:15:19;7.10;99.90
25550;DHT22;13444;50.562;7.262;2023-03-29T06:17:46;7.10;99.90
25550;DHT22;13444;50.562;7.262;2023-03-29T06:20:13;7.10;99.90
25550;DHT22;13444;50.562;7.262;2023-03-29T06:22:39;7.10;99.90
25550;DHT22;13444;50.562;7.262;2023-03-29T06:25:06;7.20;99.90
25550;DHT22;13444;50.562;7.262;2023-03-29T06:27:33;7.20;99.90
25550;DHT22;13444;50.562;7.262;2023-03-29T06:29:59;7.20;99.90
25550;DHT22;13444;50.562;7.262;2023-03-29T06:32:25;7.20;99.90
25550;DHT22;13444;50.562;7.262;2023-03-29T06:34:51;7.30;99.90
25550;DHT22;13444;50.562;7.262;2023-03-29T06:37:17;7.30;99.90
25550;DHT22;13444;50.562;7.262;2023-03-29T06:39:42;7.30;99.90
25550;DHT22;13444;50.562;7.262;2023-03-29T06:42:08;7.40;99.90
25550;DHT22;13444;50.562;7.262;2023-03-29T06:44:33;7.40;99.90
25550;DHT22;13444;50.562;7.262;2023-03-29T06:46:59;7.40;99.90
25550;DHT22;13444;50.562;7.262;2023-03-29T06:49:26;7.40;99.90
25550;DHT22;13444;50.562;7.262;2023-03-29T06:51:51;7.40;99.90
25550;DHT22;13444;50.562;7.262;2023-03-29T06:54:18;7.50;99.90
25550;DHT22;13444;50.562;7.262;2023-03-29T06:56:43;7.50;99.90
25550;DHT22;13444;50.562;7.262;2023-03-29T06:59:11;7.60;99.90
25550;DHT22;13444;50.562;7.262;2023-03-29T07:01:37;7.60;99.90
25550;DHT22;13444;50.562;7.262;2023-03-29T07:04:03;7.70;99.90
25550;DHT22;13444;50.562;7.262;2023-03-29T07:06:32;7.70;99.90
25550;DHT22;13444;50.562;7.262;2023-03-29T07:08:58;7.80;99.90
25550;DHT22;13444;50.562;7.262;2023-03-29T07:11:26;7.90;99.90
25550;DHT22;13444;50.562;7.262;2023-03-29T07:13:52;7.90;99.90
25550;DHT22;13444;50.562;7.262;2023-03-29T07:16:17;8.00;99.90
25550;DHT22;13444;50.562;7.262;2023-03-29T07:18:44;8.00;99.90
25550;DHT22;13444;50.562;7.262;2023-03-29T07:21:11;8.00;99.90
25550;DHT22;13444;50.562;7.262;2023-03-29T07:23:38;8.10;99.90
25550;DHT22;13444;50.562;7.262;2023-03-29T07:26:04;8.00;99.90
25550;DHT22;13444;50.562;7.262;2023-03-29T07:28:33;8.00;99.90
25550;DHT22;13444;50.562;7.262;2023-03-29T07:31:03;8.10;99.90
25550;DHT22;13444;50.562;7.262;2023-03-29T07:33:29;8.10;99.90
25550;DHT22;13444;50.562;7.262;2023-03-29T07:35:55;8.10;99.90
25550;DHT22;13444;50.562;7.262;2023-03-29T07:38:21;8.10;99.90
25550;DHT22;13444;50.562;7.262;2023-03-29T07:40:47;8.20;99.90
25550;DHT22;13444;50.562;7.262;2023-03-29T07:43:12;8.20;99.90
25550;DHT22;13444;50.562;7.262;2023-03-29T07:45:38;8.30;99.90
25550;DHT22;13444;50.562;7.262;2023-03-29T07:48:06;8.30;99.90
25550;DHT22;13444;50.562;7.262;2023-03-29T07:50:32;8.40;99.90
25550;DHT22;13444;50.562;7.262;2023-03-29T07:52:58;8.50;99.90
25550;DHT22;13444;50.562;7.262;2023-03-29T07:55:25;8.50;99.90
25550;DHT22;13444;50.562;7.262;2023-03-29T07:57:50;8.60;99.90
25550;DHT22;13444;50.562;7.262;2023-03-29T08:00:17;8.80;99.90
25550;DHT22;13444;50.562;7.262;2023-03-29T08:02:46;8.90;99.90
25550;DHT22;13444;50.562;7.262;2023-03-29T08:05:15;9.00;99.90
25550;DHT22;13444;50.562;7.262;2023-03-29T08:07:42;9.10;99.90
25550;DHT22;13444;50.562;7.262;2023-03-29T08:10:17;9.10;99.90
25550;DHT22;13444;50.562;7.262;2023-03-29T08:12:44;9.20;99.90
25550;DHT22;13444;50.562;7.262;2023-03-29T08:15:10;9.20;99.90
25550;DHT22;13444;50.562;7.262;2023-03-29T08:17:36;9.30;99.90
25550;DHT22;13444;50.562;7.262;2023-03-29T08:20:03;9.30;99.90
25550;DHT22;13444;50.562;7.262;2023-03-29T08:22:34;9.40;99.90
25550;DHT22;13444;50.562;7.262;2023-03-29T08:25:00;9.40;99.90
25550;DHT22;13444;50.562;7.262;2023-03-29T08:27:26;9.40;99.90
25550;DHT22;13444;50.562;7.262;2023-03-29T08:29:51;9.50;99.90
25550;DHT22;13444;50.562;7.262;2023-03-29T08:32:17;9.60;99.90
25550;DHT22;13444;50.562;7.262;2023-03-29T08:34:42;9.60;99.90
25550;DHT22;13444;50.562;7.262;2023-03-29T08:37:08;9.70;99.90
25550;DHT22;13444;50.562;7.262;2023-03-29T08:39:34;9.70;99.90
25550;DHT22;13444;50.562;7.262;2023-03-29T08:42:35;9.70;99.90
25550;DHT22;13444;50.562;7.262;2023-03-29T08:45:20;9.70;99.90
25550;DHT22;13444;50.562;7.262;2023-03-29T08:47:51;9.80;99.90
25550;DHT22;13444;50.562;7.262;2023-03-29T08:50:26;9.80;99.90
25550;DHT22;13444;50.562;7.262;2023-03-29T08:52:57;9.90;99.90
25550;DHT22;13444;50.562;7.262;2023-03-29T08:55:34;9.90;99.90
25550;DHT22;13444;50.562;7.262;2023-03-29T08:58:03;10.00;99.90
25550;DHT22;13444;50.562;7.262;2023-03-29T09:03:20;10.00;99.90
25550;DHT22;13444;50.562;7.262;2023-03-29T09:05:48;10.10;99.90
25550;DHT22;13444;50.562;7.262;2023-03-29T09:08:16;10.20;99.90
25550;DHT22;13444;50.562;7.262;2023-03-29T09:10:47;10.30;99.90
25550;DHT22;13444;50.562;7.262;2023-03-29T09:15:49;10.50;99.90
25550;DHT22;13444;50.562;7.262;2023-03-29T09:20:59;10.60;99.90
25550;DHT22;13444;50.562;7.262;2023-03-29T09:23:56;10.80;99.90
25550;DHT22;13444;50.562;7.262;2023-03-29T09:26:36;10.90;99.90
25550;DHT22;13444;50.562;7.262;2023-03-29T09:32:22;11.10;99.90
25550;DHT22;13444;50.562;7.262;2023-03-29T09:35:13;11.10;99.90
25550;DHT22;13444;50.562;7.262;2023-03-29T09:37:43;11.30;99.90
25550;DHT22;13444;50.562;7.262;2023-03-29T09:40:14;11.30;99.90
25550;DHT22;13444;50.562;7.262;2023-03-29T09:42:41;11.40;99.90
25550;DHT22;13444;50.562;7.262;2023-03-29T09:45:08;11.50;99.90
25550;DHT22;13444;50.562;7.262;2023-03-29T09:47:48;11.60;99.90
25550;DHT22;13444;50.562;7.262;2023-03-29T09:50:25;11.70;99.90
25550;DHT22;13444;50.562;7.262;2023-03-29T09:52:53;11.80;99.90
25550;DHT22;13444;50.562;7.262;2023-03-29T09:55:21;11.90;99.90
25550;DHT22;13444;50.562;7.262;2023-03-29T09:57:49;12.00;99.90
25550;DHT22;13444;50.562;7.262;2023-03-29T10:00:15;12.10;99.90
25550;DHT22;13444;50.562;7.262;2023-03-29T10:02:42;12.10;99.90
25550;DHT22;13444;50.562;7.262;2023-03-29T10:05:15;12.20;99.90
25550;DHT22;13444;50.562;7.262;2023-03-29T10:07:44;12.30;99.90
25550;DHT22;13444;50.562;7.262;2023-03-29T10:10:26;12.30;99.90
25550;DHT22;13444;50.562;7.262;2023-03-29T10:12:58;12.40;99.90
25550;DHT22;13444;50.562;7.262;2023-03-29T10:15:26;12.50;99.90
25550;DHT22;13444;50.562;7.262;2023-03-29T10:18:07;12.60;99.90
25550;DHT22;13444;50.562;7.262;2023-03-29T10:20:37;12.70;99.90
25550;DHT22;13444;50.562;7.262;2023-03-29T10:23:06;12.80;99.90
25550;DHT22;13444;50.562;7.262;2023-03-29T10:25:33;12.90;99.90
25550;DHT22;13444;50.562;7.262;2023-03-29T10:28:12;13.00;99.90
25550;DHT22;13444;50.562;7.262;2023-03-29T10:30:40;13.10;99.90
25550;DHT22;13444;50.562;7.262;2023-03-29T10:33:15;13.10;99.90
25550;DHT22;13444;50.562;7.262;2023-03-29T10:35:42;13.10;99.90
25550;DHT22;13444;50.562;7.262;2023-03-29T10:38:13;13.10;99.90
25550;DHT22;13444;50.562;7.262;2023-03-29T10:40:48;13.20;99.90
25550;DHT22;13444;50.562;7.262;2023-03-29T10:43:34;13.20;99.90
25550;DHT22;13444;50.562;7.262;2023-03-29T10:46:11;13.30;99.90
25550;DHT22;13444;50.562;7.262;2023-03-29T10:48:38;13.40;99.90
25550;DHT22;13444;50.562;7.262;2023-03-29T10:51:05;13.50;99.90
25550;DHT22;13444;50.562;7.262;2023-03-29T10:53:36;13.50;99.90
25550;DHT22;13444;50.562;7.262;2023-03-29T10:56:23;13.60;99.90
25550;DHT22;13444;50.562;7.262;2023-03-29T10:58:55;13.70;99.90
25550;DHT22;13444;50.562;7.262;2023-03-29T11:01:54;13.70;99.90
25550;DHT22;13444;50.562;7.262;2023-03-29T11:04:30;13.80;99.90
25550;DHT22;13444;50.562;7.262;2023-03-29T11:07:24;13.90;99.90
25550;DHT22;13444;50.562;7.262;2023-03-29T11:18:14;14.10;99.90
25550;DHT22;13444;50.562;7.262;2023-03-29T11:21:11;14.20;99.90
25550;DHT22;13444;50.562;7.262;2023-03-29T11:24:00;14.30;99.90
25550;DHT22;13444;50.562;7.262;2023-03-29T11:26:51;14.30;99.90
25550;DHT22;13444;50.562;7.262;2023-03-29T11:29:40;14.50;99.90
25550;DHT22;13444;50.562;7.262;2023-03-29T11:32:46;14.60;99.90
25550;DHT22;13444;50.562;7.262;2023-03-29T11:40:54;15.90;99.90
25550;DHT22;13444;50.562;7.262;2023-03-29T11:43:30;16.50;99.90
25550;DHT22;13444;50.562;7.262;2023-03-29T11:46:07;17.10;99.90
25550;DHT22;13444;50.562;7.262;2023-03-29T11:49:11;17.20;99.90
25550;DHT22;13444;50.562;7.262;2023-03-29T11:51:39;17.10;99.90
25550;DHT22;13444;50.562;7.262;2023-03-29T11:54:36;17.10;99.90
25550;DHT22;13444;50.562;7.262;2023-03-29T11:57:33;17.40;99.90
25550;DHT22;13444;50.562;7.262;2023-03-29T12:02:55;17.90;99.90
25550;DHT22;13444;50.562;7.262;2023-03-29T12:05:31;18.10;99.90
25550;DHT22;13444;50.562;7.262;2023-03-29T12:08:09;18.20;99.90
25550;DHT22;13444;50.562;7.262;2023-03-29T12:10:48;18.20;99.90
25550;DHT22;13444;50.562;7.262;2023-03-29T12:13:29;18.30;99.90
25550;DHT22;13444;50.562;7.262;2023-03-29T12:16:24;18.10;99.90
25550;DHT22;13444;50.562;7.262;2023-03-29T12:18:54;18.10;99.90
25550;DHT22;13444;50.562;7.262;2023-03-29T12:21:23;18.00;99.90
25550;DHT22;13444;50.562;7.262;2023-03-29T12:23:49;17.90;99.90
25550;DHT22;13444;50.562;7.262;2023-03-29T12:26:48;17.90;99.90
25550;DHT22;13444;50.562;7.262;2023-03-29T12:38:20;18.20;99.90
25550;DHT22;13444;50.562;7.262;2023-03-29T12:40:53;18.40;99.90
25550;DHT22;13444;50.562;7.262;2023-03-29T12:43:30;18.70;99.90
25550;DHT22;13444;50.562;7.262;2023-03-29T12:46:07;18.90;99.90
25550;DHT22;13444;50.562;7.262;2023-03-29T12:48:37;19.30;99.90
25550;DHT22;13444;50.562;7.262;2023-03-29T12:51:11;19.50;99.90
25550;DHT22;13444;50.562;7.262;2023-03-29T12:53:41;19.60;99.90
25550;DHT22;13444;50.562;7.262;2023-03-29T12:56:11;19.50;99.90
25550;DHT22;13444;50.562;7.262;2023-03-29T13:01:09;19.50;99.90
25550;DHT22;13444;50.562;7.262;2023-03-29T13:03:49;19.50;99.90
25550;DHT22;13444;50.562;7.262;2023-03-29T13:06:31;19.10;99.90
25550;DHT22;13444;50.562;7.262;2023-03-29T13:09:03;19.00;99.90
25550;DHT22;13444;50.562;7.262;2023-03-29T13:11:44;18.90;99.90
25550;DHT22;13444;50.562;7.262;2023-03-29T13:14:19;19.00;99.90
25550;DHT22;13444;50.562;7.262;2023-03-29T13:16:45;19.10;99.90
25550;DHT22;13444;50.562;7.262;2023-03-29T13:19:30;18.90;99.90
25550;DHT22;13444;50.562;7.262;2023-03-29T13:22:19;18.80;99.90
25550;DHT22;13444;50.562;7.262;2023-03-29T13:25:07;18.70;99.90
25550;DHT22;13444;50.562;7.262;2023-03-29T13:27:50;18.60;99.90
25550;DHT22;13444;50.562;7.262;2023-03-29T13:38:24;18.20;99.90
25550;DHT22;13444;50.562;7.262;2023-03-29T13:48:56;18.10;99.90
25550;DHT22;13444;50.562;7.262;2023-03-29T13:54:26;18.00;99.90
25550;DHT22;13444;50.562;7.262;2023-03-29T13:57:18;18.00;99.90
25550;DHT22;13444;50.562;7.262;2023-03-29T14:00:03;18.00;99.90
25550;DHT22;13444;50.562;7.262;2023-03-29T14:02:36;18.00;99.90
25550;DHT22;13444;50.562;7.262;2023-03-29T14:05:07;17.90;99.90
25550;DHT22;13444;50.562;7.262;2023-03-29T14:07:36;17.80;99.90
25550;DHT22;13444;50.562;7.262;2023-03-29T14:10:03;17.80;99.90
25550;DHT22;13444;50.562;7.262;2023-03-29T14:12:34;17.80;99.90
25550;DHT22;13444;50.562;7.262;2023-03-29T14:15:03;17.80;99.90
25550;DHT22;13444;50.562;7.262;2023-03-29T14:17:29;17.80;99.90
25550;DHT22;13444;50.562;7.262;2023-03-29T14:19:57;17.80;99.90
25550;DHT22;13444;50.562;7.262;2023-03-29T14:22:23;17.80;99.90
25550;DHT22;13444;50.562;7.262;2023-03-29T14:24:53;17.80;99.90
25550;DHT22;13444;50.562;7.262;2023-03-29T14:27:19;17.70;99.90
25550;DHT22;13444;50.562;7.262;2023-03-29T14:29:47;17.60;99.90
25550;DHT22;13444;50.562;7.262;2023-03-29T14:32:14;17.60;99.90
25550;DHT22;13444;50.562;7.262;2023-03-29T14:34:41;17.60;99.90
25550;DHT22;13444;50.562;7.262;2023-03-29T14:37:17;17.60;99.90
25550;DHT22;13444;50.562;7.262;2023-03-29T14:39:46;17.60;99.90
25550;DHT22;13444;50.562;7.262;2023-03-29T14:42:16;17.60;99.90
25550;DHT22;13444;50.562;7.262;2023-03-29T14:44:45;17.50;99.90
25550;DHT22;13444;50.562;7.262;2023-03-29T14:47:17;17.50;99.90
25550;DHT22;13444;50.562;7.262;2023-03-29T14:49:45;17.40;99.90
25550;DHT22;13444;50.562;7.262;2023-03-29T14:52:11;17.40;99.90
25550;DHT22;13444;50.562;7.262;2023-03-29T14:54:40;17.30;99.90
25550;DHT22;13444;50.562;7.262;2023-03-29T14:57:15;17.30;99.90
25550;DHT22;13444;50.562;7.262;2023-03-29T14:59:54;17.30;99.90
25550;DHT22;13444;50.562;7.262;2023-03-29T15:02:32;17.30;99.90
25550;DHT22;13444;50.562;7.262;2023-03-29T15:05:06;17.30;99.90
25550;DHT22;13444;50.562;7.262;2023-03-29T15:07:46;17.20;99.90
25550;DHT22;13444;50.562;7.262;2023-03-29T15:10:18;17.20;99.90
25550;DHT22;13444;50.562;7.262;2023-03-29T15:12:44;17.10;99.90
25550;DHT22;13444;50.562;7.262;2023-03-29T15:15:12;17.10;99.90
25550;DHT22;13444;50.562;7.262;2023-03-29T15:17:39;17.00;99.90
25550;DHT22;13444;50.562;7.262;2023-03-29T15:20:11;17.00;99.90
25550;DHT22;13444;50.562;7.262;2023-03-29T15:22:39;17.00;99.90
25550;DHT22;13444;50.562;7.262;2023-03-29T15:25:26;17.00;99.90
25550;DHT22;13444;50.562;7.262;2023-03-29T15:27:55;17.00;99.90
25550;DHT22;13444;50.562;7.262;2023-03-29T15:30:30;17.00;99.90
25550;DHT22;13444;50.562;7.262;2023-03-29T15:33:13;17.00;99.90
25550;DHT22;13444;50.562;7.262;2023-03-29T15:35:41;17.00;99.90
25550;DHT22;13444;50.562;7.262;2023-03-29T15:38:11;17.00;99.90
25550;DHT22;13444;50.562;7.262;2023-03-29T15:40:37;17.00;99.90
25550;DHT22;13444;50.562;7.262;2023-03-29T15:43:03;17.00;99.90
25550;DHT22;13444;50.562;7.262;2023-03-29T15:45:28;17.00;99.90
25550;DHT22;13444;50.562;7.262;2023-03-29T15:47:54;17.10;99.90
25550;DHT22;13444;50.562;7.262;2023-03-29T15:50:19;17.10;99.90
25550;DHT22;13444;50.562;7.262;2023-03-29T15:52:45;17.00;99.90
25550;DHT22;13444;50.562;7.262;2023-03-29T15:55:11;16.90;99.90
25550;DHT22;13444;50.562;7.262;2023-03-29T15:57:36;16.80;99.90
25550;DHT22;13444;50.562;7.262;2023-03-29T16:00:05;16.70;99.90
25550;DHT22;13444;50.562;7.262;2023-03-29T16:02:33;16.60;99.90
25550;DHT22;13444;50.562;7.262;2023-03-29T16:04:58;16.60;99.90
25550;DHT22;13444;50.562;7.262;2023-03-29T16:07:25;16.60;99.90
25550;DHT22;13444;50.562;7.262;2023-03-29T16:09:51;16.60;99.90
25550;DHT22;13444;50.562;7.262;2023-03-29T16:12:17;16.60;99.90
25550;DHT22;13444;50.562;7.262;2023-03-29T16:14:42;16.60;99.90
25550;DHT22;13444;50.562;7.262;2023-03-29T16:17:08;16.60;99.90
25550;DHT22;13444;50.562;7.262;2023-03-29T16:19:33;16.60;99.90
25550;DHT22;13444;50.562;7.262;2023-03-29T16:22:01;16.60;99.90
25550;DHT22;13444;50.562;7.262;2023-03-29T16:24:29;16.60;99.90
25550;DHT22;13444;50.562;7.262;2023-03-29T16:26:56;16.70;99.90
25550;DHT22;13444;50.562;7.262;2023-03-29T16:29:29;16.70;99.90
25550;DHT22;13444;50.562;7.262;2023-03-29T16:31:55;16.60;99.90
25550;DHT22;13444;50.562;7.262;2023-03-29T16:34:21;16.60;99.90
25550;DHT22;13444;50.562;7.262;2023-03-29T16:36:47;16.50;99.90
25550;DHT22;13444;50.562;7.262;2023-03-29T16:39:13;16.50;99.90
25550;DHT22;13444;50.562;7.262;2023-03-29T16:41:40;16.40;99.90
25550;DHT22;13444;50.562;7.262;2023-03-29T16:44:06;16.30;99.90
25550;DHT22;13444;50.562;7.262;2023-03-29T16:46:32;16.30;99.90
25550;DHT22;13444;50.562;7.262;2023-03-29T16:48:57;16.20;99.90
25550;DHT22;13444;50.562;7.262;2023-03-29T16:51:24;16.20;99.90
25550;DHT22;13444;50.562;7.262;2023-03-29T16:53:50;16.10;99.90
25550;DHT22;13444;50.562;7.262;2023-03-29T16:56:19;16.00;99.90
25550;DHT22;13444;50.562;7.262;2023-03-29T16:58:45;16.00;99.90
25550;DHT22;13444;50.562;7.262;2023-03-29T17:01:16;16.00;99.90
25550;DHT22;13444;50.562;7.262;2023-03-29T17:03:42;16.00;99.90
25550;DHT22;13444;50.562;7.262;2023-03-29T17:06:09;16.00;99.90
25550;DHT22;13444;50.562;7.262;2023-03-29T17:08:36;16.00;99.90
25550;DHT22;13444;50.562;7.262;2023-03-29T17:11:02;16.00;99.90